Time;durP1;ratioP1;P1;durP2;ratioP2;P2;SDS_P1;SDS_P2;PMS_P1;PMS_P2;Temp;Humidity;BMP_temperature;BMP_pressure;BME280_temperature;BME280_humidity;BME280_pressure;Samples;Min_cycle;Max_cycle;Signal;HPM_P1;HPM_P2
2021/06/24 00:02:00;;;;;;;192.98;13.23;;;;;;;21.56;74.74;101005.13;4889668;28;102417;-65
2021/06/24 00:04:27;;;;;;;7.03;4.97;;;;;;;21.57;74.92;101004.00;4892446;28;102286;-65
2021/06/24 00:06:56;;;;;;;4.78;4.47;;;;;;;21.56;74.80;101005.13;4891609;28;104154;-65
2021/06/24 00:09:25;;;;;;;9.50;5.07;;;;;;;21.55;74.87;101004.31;4891264;28;102380;-65
2021/06/24 00:11:51;;;;;;;5.85;4.68;;;;;;;21.55;74.87;100998.78;4890510;28;102762;-66
2021/06/24 00:14:18;;;;;;;5.10;4.68;;;;;;;21.55;74.94;100993.25;4891643;28;102963;-65
2021/06/24 00:16:51;;;;;;;4.90;4.50;;;;;;;21.56;74.98;100991.28;4886922;28;104042;-66
2021/06/24 00:19:18;;;;;;;4.82;4.43;;;;;;;21.55;74.88;100987.69;4891940;28;102835;-65
2021/06/24 00:21:45;;;;;;;5.57;4.72;;;;;;;21.54;74.89;100985.28;4892321;28;102242;-65
2021/06/24 00:24:13;;;;;;;4.90;4.47;;;;;;;21.55;74.99;100984.13;4892963;28;102235;-65
2021/06/24 00:26:40;;;;;;;5.10;4.70;;;;;;;21.55;74.79;100984.13;4878703;28;103877;-66
2021/06/24 00:29:07;;;;;;;5.15;4.43;;;;;;;21.56;74.75;100986.53;4889646;28;102543;-65
2021/06/24 00:31:33;;;;;;;5.05;4.55;;;;;;;21.55;74.91;100984.94;4892310;28;102291;-66
2021/06/24 00:34:00;;;;;;;4.90;4.50;;;;;;;21.54;74.90;100990.81;4892482;28;102407;-66
2021/06/24 00:36:26;;;;;;;4.57;4.28;;;;;;;21.55;74.98;100992.44;4887952;28;103977;-66
2021/06/24 00:38:52;;;;;;;4.80;4.40;;;;;;;21.54;74.97;100988.84;4889076;28;102611;-65
2021/06/24 00:41:21;;;;;;;16.50;4.50;;;;;;;21.54;74.87;100993.59;4892765;28;102629;-66
2021/06/24 00:43:49;;;;;;;26.50;5.88;;;;;;;21.54;74.87;100979.75;4893856;28;102296;-66
2021/06/24 00:46:16;;;;;;;4.93;4.53;;;;;;;21.53;74.88;100986.41;4893443;28;104117;-66
2021/06/24 00:48:44;;;;;;;26.05;4.88;;;;;;;21.54;74.91;100985.28;4895977;28;102397;-65
2021/06/24 00:51:11;;;;;;;5.68;4.95;;;;;;;21.54;75.02;100988.84;4904459;28;102042;-66
2021/06/24 00:53:38;;;;;;;4.95;4.43;;;;;;;21.53;74.80;100981.72;4921891;28;102103;-67
2021/06/24 00:56:14;;;;;;;4.72;4.32;;;;;;;21.54;75.02;100985.28;4904084;28;102972;-66
2021/06/24 00:58:43;;;;;;;33.63;6.20;;;;;;;21.52;75.02;100990.34;4892892;28;102568;-66
2021/06/24 01:01:10;;;;;;;4.77;4.37;;;;;;;21.53;74.83;100989.19;4894817;28;102153;-65
2021/06/24 01:03:37;;;;;;;5.50;4.43;;;;;;;21.54;74.99;100990.81;4889110;28;102572;-64
2021/06/24 01:06:05;;;;;;;4.47;4.17;;;;;;;21.52;75.02;100987.56;4893666;28;103926;-65
2021/06/24 01:08:31;;;;;;;25.90;5.22;;;;;;;21.52;74.76;100976.50;4893925;28;102081;-65
2021/06/24 01:10:58;;;;;;;23.05;4.55;;;;;;;21.51;74.94;100975.69;4892185;28;103337;-65
2021/06/24 01:13:25;;;;;;;4.95;4.43;;;;;;;21.52;75.00;100976.50;4890562;28;102590;-66
2021/06/24 01:15:53;;;;;;;4.40;4.10;;;;;;;21.52;75.11;100976.50;4889324;28;103737;-66
2021/06/24 01:18:20;;;;;;;4.88;4.18;;;;;;;21.51;74.87;100970.16;4891221;28;102545;-66
2021/06/24 01:20:46;;;;;;;5.05;4.55;;;;;;;21.51;74.86;100974.88;4890712;28;102585;-65
2021/06/24 01:23:13;;;;;;;8.23;4.93;;;;;;;21.51;75.17;100970.16;4892505;28;103524;-65
2021/06/24 01:25:41;;;;;;;6.88;4.28;;;;;;;21.52;74.96;100973.72;4888168;28;104126;-65
2021/06/24 01:28:10;;;;;;;21.42;4.82;;;;;;;21.50;74.69;100982.38;4885372;28;102427;-65
2021/06/24 01:30:38;;;;;;;4.25;3.95;;;;;;;21.51;75.14;100983.19;4890896;28;103428;-65
2021/06/24 01:33:06;;;;;;;4.82;4.43;;;;;;;21.53;74.97;100978.09;4893503;28;102268;-66
2021/06/24 01:35:34;;;;;;;4.13;3.83;;;;;;;21.51;75.04;100980.41;4892215;28;102547;-65
2021/06/24 01:38:02;;;;;;;6.60;4.53;;;;;;;21.51;74.87;100975.69;4891302;28;102529;-65
2021/06/24 01:40:30;;;;;;;7.20;4.93;;;;;;;21.50;74.96;100984.34;4888151;28;102105;-65
2021/06/24 01:42:58;;;;;;;4.28;3.97;;;;;;;21.50;75.04;100990.69;4887054;28;102276;-64
2021/06/24 01:45:25;;;;;;;4.40;4.10;;;;;;;21.51;74.67;100991.50;4889763;28;103905;-65
2021/06/24 01:47:53;;;;;;;4.57;4.13;;;;;;;21.52;74.85;100990.34;4890636;28;102879;-65
2021/06/24 01:50:20;;;;;;;4.38;3.97;;;;;;;21.51;75.02;100991.50;4890166;28;102214;-65
2021/06/24 01:52:49;;;;;;;4.13;3.83;;;;;;;21.50;74.90;100990.69;4893269;28;102416;-65
2021/06/24 01:55:16;;;;;;;4.25;3.95;;;;;;;21.50;74.95;100993.47;4891062;28;103863;-65
2021/06/24 01:57:43;;;;;;;4.38;3.97;;;;;;;21.50;74.85;100985.16;4891448;28;102327;-65
2021/06/24 02:00:13;;;;;;;4.32;3.80;;;;;;;21.49;74.96;100994.63;4891159;28;102280;-64
2021/06/24 02:02:41;;;;;;;3.95;3.65;;;;;;;21.48;75.03;100990.22;4893439;28;102449;-65
2021/06/24 02:05:09;;;;;;;4.50;4.10;;;;;;;21.49;75.08;100999.31;4890945;28;102648;-65
2021/06/24 02:07:39;;;;;;;4.47;4.18;;;;;;;21.49;74.94;100988.25;4892048;28;103247;-65
2021/06/24 02:10:09;;;;;;;5.10;4.60;;;;;;;21.48;74.90;100990.22;4886602;28;102592;-64
2021/06/24 02:12:36;;;;;;;4.47;4.10;;;;;;;21.49;74.88;100988.25;4883435;28;102447;-65
2021/06/24 02:15:03;;;;;;;3.90;3.60;;;;;;;21.48;74.93;100992.16;4890868;28;102779;-65
2021/06/24 02:17:30;;;;;;;4.50;4.10;;;;;;;21.48;75.11;100984.66;4891952;28;102457;-65
2021/06/24 02:19:58;;;;;;;4.22;3.92;;;;;;;21.48;75.00;100997.72;4889697;28;102264;-65
2021/06/24 02:22:25;;;;;;;4.40;4.07;;;;;;;21.49;75.00;100993.78;4891470;28;102189;-65
2021/06/24 02:24:51;;;;;;;4.50;4.10;;;;;;;21.49;74.98;100993.78;4888098;28;104461;-66
2021/06/24 02:27:18;;;;;;;4.47;4.13;;;;;;;21.47;75.13;100985.81;4891206;28;102645;-65
2021/06/24 02:29:45;;;;;;;6.03;3.88;;;;;;;21.47;74.98;100990.56;4889866;28;102635;-65
2021/06/24 02:32:11;;;;;;;4.35;3.85;;;;;;;21.48;74.92;100989.41;4885195;28;102449;-65
2021/06/24 02:34:41;;;;;;;4.45;4.05;;;;;;;21.48;74.96;100992.16;4888328;28;103904;-65
2021/06/24 02:37:08;;;;;;;4.03;3.72;;;;;;;21.47;74.68;100990.56;4889981;28;103075;-65
2021/06/24 02:39:34;;;;;;;4.50;3.97;;;;;;;21.48;75.10;100992.16;4891299;28;102047;-65
2021/06/24 02:42:01;;;;;;;4.60;3.83;;;;;;;21.47;75.18;100991.38;4891159;28;102612;-65
2021/06/24 02:44:29;;;;;;;3.83;3.57;;;;;;;21.48;74.89;100994.94;4881650;28;104059;-65
2021/06/24 02:46:56;;;;;;;4.70;4.25;;;;;;;21.47;75.02;100993.31;4890804;28;102630;-66
2021/06/24 02:49:22;;;;;;;3.80;3.50;;;;;;;21.48;74.91;100992.97;4887574;28;102607;-65
2021/06/24 02:51:50;;;;;;;4.13;3.83;;;;;;;21.48;74.92;100975.56;4886256;28;102288;-65
2021/06/24 02:54:18;;;;;;;3.70;3.40;;;;;;;21.48;74.90;100992.16;4889976;28;103459;-65
2021/06/24 02:56:45;;;;;;;4.40;4.00;;;;;;;21.49;75.04;100985.47;4892621;28;102466;-65
2021/06/24 02:59:12;;;;;;;3.80;3.50;;;;;;;21.49;74.88;100993.78;4887517;28;103084;-65
2021/06/24 03:01:39;;;;;;;4.50;4.10;;;;;;;21.50;74.93;100984.34;4890871;28;102228;-65
2021/06/24 03:04:06;;;;;;;4.07;3.75;;;;;;;21.49;74.88;100986.31;4888886;28;103888;-65
2021/06/24 03:06:34;;;;;;;4.25;3.92;;;;;;;21.50;74.89;100984.34;4889273;28;102013;-65
2021/06/24 03:09:03;;;;;;;4.00;3.70;;;;;;;21.50;74.91;100981.56;4889751;28;102100;-65
2021/06/24 03:11:30;;;;;;;4.45;4.03;;;;;;;21.51;74.68;100985.97;4890566;28;102702;-64
2021/06/24 03:13:57;;;;;;;4.28;3.97;;;;;;;21.49;74.82;100989.09;4889027;28;103939;-65
2021/06/24 03:16:23;;;;;;;3.72;3.45;;;;;;;21.49;74.83;100988.25;4888824;28;102693;-65
2021/06/24 03:18:50;;;;;;;4.03;3.72;;;;;;;21.50;74.89;100989.88;4889329;28;103457;-66
2021/06/24 03:21:17;;;;;;;4.10;3.70;;;;;;;21.51;75.04;100997.03;4891491;28;102350;-65
2021/06/24 03:23:43;;;;;;;3.53;3.22;;;;;;;21.52;74.89;100996.69;4888981;28;102777;-65
2021/06/24 03:26:11;;;;;;;3.67;3.38;;;;;;;21.51;74.91;100997.84;4900508;28;103246;-65
2021/06/24 03:28:38;;;;;;;4.57;4.18;;;;;;;21.51;74.85;100992.31;4889820;28;102129;-65
2021/06/24 03:31:04;;;;;;;3.95;3.65;;;;;;;21.51;74.89;100997.03;4889900;28;102630;-65
2021/06/24 03:33:31;;;;;;;4.90;3.88;;;;;;;21.53;74.78;101003.03;4888720;28;103882;-65
2021/06/24 03:35:58;;;;;;;4.28;3.97;;;;;;;21.52;74.85;100999.44;4889958;28;102518;-65
2021/06/24 03:38:25;;;;;;;3.95;3.55;;;;;;;21.54;74.75;101011.00;4893763;28;102566;-64
2021/06/24 03:40:52;;;;;;;4.15;3.67;;;;;;;21.52;74.78;100996.69;4887387;28;102528;-65
2021/06/24 03:43:19;;;;;;;3.72;3.47;;;;;;;21.54;74.76;101001.91;4892079;28;103907;-65
2021/06/24 03:45:46;;;;;;;3.97;3.67;;;;;;;21.54;74.83;100996.38;4892445;28;103268;-65
2021/06/24 03:48:13;;;;;;;3.88;3.58;;;;;;;21.53;74.61;100994.72;4890624;28;102404;-65
2021/06/24 03:50:40;;;;;;;4.22;3.92;;;;;;;21.53;74.68;100991.94;4893903;28;102307;-64
2021/06/24 03:53:06;;;;;;;3.47;3.17;;;;;;;21.53;74.77;100990.03;4891913;28;103688;-65
2021/06/24 03:55:51;;;;;;;4.05;3.75;;;;;;;21.54;74.60;100990.81;4892794;28;102307;-65
2021/06/24 03:58:19;;;;;;;3.70;3.35;;;;;;;21.54;74.66;100990.81;4893603;28;102020;-65
2021/06/24 04:00:48;;;;;;;3.67;3.47;;;;;;;21.55;74.62;100998.78;4893417;28;102466;-65
2021/06/24 04:03:15;;;;;;;;;;;;;;;21.55;74.33;100995.19;4891174;28;103749;-65
2021/06/24 04:05:43;;;;;;;4.07;3.78;;;;;;;21.56;74.58;100994.84;4899130;28;102497;-65
2021/06/24 04:08:10;;;;;;;4.73;3.97;;;;;;;21.55;74.80;100993.25;4888560;28;102704;-64
2021/06/24 04:10:37;;;;;;;3.92;3.63;;;;;;;21.56;74.61;100994.03;4891441;28;102417;-65
2021/06/24 04:13:05;;;;;;;3.83;3.60;;;;;;;21.57;74.58;100995.69;4889425;28;103959;-65
2021/06/24 04:15:33;;;;;;;3.83;3.47;;;;;;;21.57;74.67;100992.91;4893647;28;102292;-65
2021/06/24 04:18:02;;;;;;;4.32;3.83;;;;;;;21.57;74.48;100987.38;4890385;28;102051;-65
2021/06/24 04:20:30;;;;;;;3.60;3.38;;;;;;;21.58;74.68;100989.00;4893675;28;102352;-65
2021/06/24 04:22:57;;;;;;;3.60;3.30;;;;;;;21.59;74.58;100988.63;4890613;28;103764;-65
2021/06/24 04:25:24;;;;;;;4.50;3.45;;;;;;;21.58;74.62;100984.25;4892061;28;102167;-65
2021/06/24 04:27:51;;;;;;;3.72;3.40;;;;;;;21.61;74.47;100990.28;4891562;28;102168;-65
2021/06/24 04:30:19;;;;;;;14.98;4.75;;;;;;;21.62;74.47;100987.16;4892789;28;102811;-65
2021/06/24 04:32:47;;;;;;;3.75;3.38;;;;;;;21.61;74.59;100991.09;4888972;28;103864;-65
2021/06/24 04:35:14;;;;;;;7.05;3.58;;;;;;;21.62;74.48;100981.63;4891085;28;102139;-65
2021/06/24 04:37:41;;;;;;;3.65;3.42;;;;;;;21.62;74.57;100986.34;4893616;28;102499;-65
2021/06/24 04:40:12;;;;;;;3.90;3.60;;;;;;;21.63;74.61;100977.69;4892289;28;102737;-65
2021/06/24 04:42:40;;;;;;;3.97;3.33;;;;;;;21.64;74.25;100973.78;4891296;28;104010;-64
2021/06/24 04:45:09;;;;;;;3.92;3.47;;;;;;;21.64;74.41;100979.34;4890436;28;102101;-65
2021/06/24 04:47:36;;;;;;;3.53;3.30;;;;;;;21.65;74.45;100989.25;4891690;28;102533;-65
2021/06/24 04:50:05;;;;;;;3.83;3.53;;;;;;;21.65;74.40;100986.50;4890797;28;102947;-65
2021/06/24 04:52:31;;;;;;;3.45;3.25;;;;;;;21.67;74.51;100988.91;4886950;28;103822;-65
2021/06/24 04:54:59;;;;;;;3.80;3.50;;;;;;;21.66;74.47;100985.31;4890421;28;102698;-65
2021/06/24 04:57:25;;;;;;;3.95;3.60;;;;;;;21.69;74.41;100987.41;4892332;28;102105;-64
2021/06/24 04:59:52;;;;;;;3.47;3.17;;;;;;;21.69;74.33;100981.88;4885316;28;102630;-66
2021/06/24 05:02:18;;;;;;;7.63;3.65;;;;;;;21.69;74.28;100987.41;4887719;28;104275;-65
2021/06/24 05:04:45;;;;;;;3.95;3.28;;;;;;;21.71;74.49;100993.44;4891473;28;104556;-65
2021/06/24 05:07:13;;;;;;;3.63;3.30;;;;;;;21.72;74.39;100997.81;4890854;28;102606;-66
2021/06/24 05:09:40;;;;;;;3.43;3.13;;;;;;;21.72;74.34;100986.75;4889437;28;102548;-65
2021/06/24 05:12:09;;;;;;;3.72;3.33;;;;;;;21.73;74.33;101004.97;4880757;28;103333;-65
2021/06/24 05:14:36;;;;;;;3.80;3.38;;;;;;;21.76;74.38;101009.84;4891719;28;102012;-65
2021/06/24 05:17:03;;;;;;;3.70;3.40;;;;;;;21.77;74.27;101005.09;4890854;28;102642;-65
2021/06/24 05:19:32;;;;;;;3.97;3.58;;;;;;;21.77;74.29;101008.69;4892065;28;102568;-66
2021/06/24 05:21:58;;;;;;;3.83;3.42;;;;;;;21.78;74.30;101007.56;4890736;28;104015;-67
2021/06/24 05:24:26;;;;;;;3.33;3.13;;;;;;;21.79;74.25;101014.72;4892926;28;102584;-65
2021/06/24 05:26:53;;;;;;;4.57;3.50;;;;;;;21.81;74.09;101017.13;4897444;28;102148;-66
2021/06/24 05:29:19;;;;;;;4.80;3.40;;;;;;;21.82;74.20;101016.81;4906821;28;101829;-65
2021/06/24 05:31:46;;;;;;;3.47;3.28;;;;;;;21.84;74.28;101011.72;4901884;28;103919;-65
2021/06/24 05:34:12;;;;;;;6.13;3.90;;;;;;;21.86;73.91;101013.34;4896075;28;102883;-66
2021/06/24 05:36:39;;;;;;;3.60;3.30;;;;;;;21.87;74.21;101020.50;4892336;28;102407;-66
2021/06/24 05:39:05;;;;;;;3.60;3.30;;;;;;;21.88;73.99;101022.13;4893251;28;102831;-65
2021/06/24 05:41:35;;;;;;;4.15;3.72;;;;;;;21.92;74.04;101025.81;4894628;28;102852;-66
2021/06/24 05:44:02;;;;;;;3.83;3.50;;;;;;;21.94;74.03;101020.78;4893202;28;102434;-66
2021/06/24 05:46:29;;;;;;;4.03;3.50;;;;;;;21.96;74.08;101018.44;4894329;28;102388;-66
2021/06/24 05:48:56;;;;;;;4.22;3.83;;;;;;;21.97;74.06;101015.34;4888517;28;102443;-66
2021/06/24 05:51:25;;;;;;;3.35;3.05;;;;;;;22.01;74.12;101019.06;4889417;28;103694;-66
2021/06/24 05:53:52;;;;;;;4.78;3.50;;;;;;;22.03;74.04;101011.22;4891666;28;102429;-66
2021/06/24 05:56:23;;;;;;;5.18;3.80;;;;;;;22.04;74.05;101014.81;4890979;28;102583;-66
2021/06/24 05:58:51;;;;;;;4.20;3.72;;;;;;;22.05;74.05;101022.75;4890741;28;102791;-67
2021/06/24 06:01:20;;;;;;;3.83;3.53;;;;;;;22.08;73.91;101021.28;4890109;28;103911;-65
2021/06/24 06:03:48;;;;;;;3.92;3.53;;;;;;;22.09;73.92;101017.34;4890507;28;102506;-66
2021/06/24 06:06:15;;;;;;;6.03;3.80;;;;;;;22.10;74.07;101018.97;4890872;28;102145;-66
2021/06/24 06:08:42;;;;;;;4.18;3.78;;;;;;;22.11;73.88;101020.59;4889857;28;102225;-66
2021/06/24 06:11:08;;;;;;;4.57;3.90;;;;;;;22.13;73.94;101026.59;4883764;28;103807;-66
2021/06/24 06:13:56;;;;;;;4.00;3.53;;;;;;;22.13;74.01;101026.59;4876850;28;102607;-66
2021/06/24 06:16:23;;;;;;;5.53;4.13;;;;;;;22.13;73.87;101021.03;4884464;28;102516;-66
2021/06/24 06:18:52;;;;;;;4.25;3.85;;;;;;;22.15;73.91;101018.78;4891450;28;102439;-66
2021/06/24 06:21:19;;;;;;;5.18;3.53;;;;;;;22.16;73.77;101019.59;4885741;28;104405;-66
2021/06/24 06:23:45;;;;;;;10.57;4.07;;;;;;;22.17;73.78;101018.44;4889940;28;102386;-66
2021/06/24 06:26:12;;;;;;;4.80;4.07;;;;;;;22.18;73.76;101014.50;4887695;28;102210;-66
2021/06/24 06:28:38;;;;;;;4.78;3.80;;;;;;;22.18;73.95;101004.25;4888195;28;102297;-66
2021/06/24 06:31:06;;;;;;;6.97;3.70;;;;;;;22.21;73.80;101014.63;4885229;28;103102;-66
2021/06/24 06:33:33;;;;;;;3.77;3.30;;;;;;;22.23;73.81;101009.56;4891439;28;103007;-66
2021/06/24 06:35:59;;;;;;;4.93;3.95;;;;;;;22.25;73.83;101009.19;4887538;28;102290;-66
2021/06/24 06:38:26;;;;;;;4.43;3.88;;;;;;;22.25;73.85;101006.44;4891316;28;102644;-66
2021/06/24 06:40:52;;;;;;;6.00;4.13;;;;;;;22.25;73.65;101004.50;4885890;28;103928;-66
2021/06/24 06:43:19;;;;;;;4.72;4.28;;;;;;;22.24;73.80;101002.84;4888810;28;103107;-66
2021/06/24 06:45:46;;;;;;;5.55;4.05;;;;;;;22.25;73.73;101004.50;4888086;28;102511;-66
2021/06/24 06:48:15;;;;;;;5.43;4.40;;;;;;;22.25;73.65;100998.94;4889176;28;102458;-66
2021/06/24 06:50:42;;;;;;;5.32;4.07;;;;;;;22.26;73.93;100994.22;4888732;28;104323;-66
2021/06/24 06:53:08;;;;;;;5.85;4.65;;;;;;;22.27;73.67;100988.31;4888973;28;101989;-66
2021/06/24 06:55:36;;;;;;;6.55;4.60;;;;;;;22.28;73.75;100995.47;4886977;28;102544;-66
2021/06/24 06:58:02;;;;;;;5.65;4.10;;;;;;;22.29;73.79;100990.75;4887824;28;102259;-66
2021/06/24 07:00:30;;;;;;;6.65;4.05;;;;;;;22.29;73.57;100994.34;4883762;28;102761;-66
2021/06/24 07:02:58;;;;;;;5.60;4.13;;;;;;;22.30;73.77;100984.84;4880935;28;102841;-66
2021/06/24 07:05:27;;;;;;;6.03;4.60;;;;;;;22.30;73.56;100979.31;4887334;28;102543;-66
2021/06/24 07:07:53;;;;;;;5.25;4.70;;;;;;;22.31;73.75;100983.69;4888021;28;102196;-67
2021/06/24 07:10:20;;;;;;;4.00;3.70;;;;;;;22.30;73.72;100979.31;4888005;28;103739;-66
2021/06/24 07:12:47;;;;;;;5.18;4.28;;;;;;;22.33;73.69;100979.78;4880003;28;102692;-66
2021/06/24 07:15:14;;;;;;;4.57;4.18;;;;;;;22.33;73.67;100979.78;4880590;28;102705;-66
2021/06/24 07:17:41;;;;;;;5.25;4.28;;;;;;;22.31;73.48;100972.59;4891351;28;102514;-66
2021/06/24 07:20:09;;;;;;;5.72;4.63;;;;;;;22.33;73.56;100977.81;4887881;28;103898;-66
2021/06/24 07:22:37;;;;;;;6.85;4.57;;;;;;;22.33;73.66;100977.00;4889460;28;102233;-66
2021/06/24 07:25:04;;;;;;;4.13;3.73;;;;;;;22.35;73.52;100985.78;4887209;28;102260;-66
2021/06/24 07:27:32;;;;;;;5.18;4.30;;;;;;;22.34;73.55;100973.06;4892004;28;103168;-66
2021/06/24 07:29:58;;;;;;;4.28;3.78;;;;;;;22.35;73.47;100974.69;4883098;28;104161;-66
2021/06/24 07:32:25;;;;;;;6.82;4.43;;;;;;;22.34;73.40;100973.06;4890188;28;102145;-66
2021/06/24 07:34:51;;;;;;;5.63;4.13;;;;;;;22.35;73.56;100977.47;4887903;28;102457;-66
2021/06/24 07:37:18;;;;;;;5.32;4.18;;;;;;;22.34;73.70;100973.06;4888283;28;103593;-66
2021/06/24 07:39:46;;;;;;;3.78;3.47;;;;;;;22.36;73.50;100976.28;4887752;28;103653;-66
2021/06/24 07:42:12;;;;;;;4.40;4.03;;;;;;;22.36;73.55;100970.75;4900126;28;102613;-66
2021/06/24 07:44:39;;;;;;;6.28;4.43;;;;;;;22.36;73.35;100976.28;4885976;28;102124;-66
2021/06/24 07:47:05;;;;;;;6.28;3.97;;;;;;;22.36;73.53;100962.44;4878679;28;102590;-66
2021/06/24 07:49:32;;;;;;;5.32;4.28;;;;;;;22.37;73.63;100977.94;4886445;28;102792;-66
2021/06/24 07:51:59;;;;;;;6.95;4.20;;;;;;;22.41;73.90;100984.41;4885466;28;102099;-66
2021/06/24 07:54:26;;;;;;;8.32;4.40;;;;;;;22.44;73.78;100976.22;4889324;28;102579;-66
2021/06/24 07:56:55;;;;;;;6.25;4.18;;;;;;;22.43;73.37;100977.38;4887251;28;102234;-67
2021/06/24 07:59:21;;;;;;;5.70;4.28;;;;;;;22.43;73.58;100987.63;4886174;28;104005;-66
2021/06/24 08:01:50;;;;;;;5.88;4.25;;;;;;;22.43;73.58;100984.84;4883451;28;102199;-66
2021/06/24 08:04:17;;;;;;;7.20;4.20;;;;;;;22.43;73.37;100984.84;4885835;28;102732;-66
2021/06/24 08:06:44;;;;;;;5.38;4.00;;;;;;;22.44;73.51;100983.72;4888784;28;102702;-66
2021/06/24 08:09:13;;;;;;;4.82;4.03;;;;;;;22.44;73.30;100980.94;4871871;28;103812;-66
2021/06/24 08:11:40;;;;;;;5.93;4.45;;;;;;;22.44;73.36;100976.22;4880709;28;103487;-67
2021/06/24 08:14:08;;;;;;;4.50;3.70;;;;;;;22.45;73.63;100969.50;4889975;28;102687;-66
2021/06/24 08:16:35;;;;;;;4.23;3.70;;;;;;;22.45;73.28;100980.59;4890096;28;102524;-66
2021/06/24 08:19:03;;;;;;;5.28;4.13;;;;;;;22.45;73.56;100979.78;4888361;28;104088;-67
2021/06/24 08:21:29;;;;;;;6.35;4.15;;;;;;;22.46;73.51;100990.53;4885086;28;102022;-66
2021/06/24 08:23:56;;;;;;;5.93;4.10;;;;;;;22.47;73.48;100988.59;4891643;28;102534;-66
2021/06/24 08:26:23;;;;;;;4.72;4.13;;;;;;;22.47;73.47;100983.84;4895729;28;103156;-66
2021/06/24 08:28:50;;;;;;;5.82;4.18;;;;;;;22.46;73.37;100993.28;4893315;28;103903;-66
2021/06/24 08:31:18;;;;;;;4.82;4.30;;;;;;;22.46;73.46;100982.19;4895369;28;102743;-66
2021/06/24 08:33:46;;;;;;;4.93;4.17;;;;;;;22.46;73.19;100990.53;4892060;28;102694;-66
2021/06/24 08:36:15;;;;;;;4.60;4.20;;;;;;;22.47;73.44;100999.69;4893558;28;103913;-66
2021/06/24 08:38:42;;;;;;;4.55;3.90;;;;;;;22.47;73.22;100994.13;4893032;28;102682;-66
2021/06/24 08:41:09;;;;;;;4.35;3.97;;;;;;;22.47;73.36;100996.91;4893743;28;103346;-66
2021/06/24 08:43:35;;;;;;;7.25;4.50;;;;;;;22.46;73.21;100995.25;4886040;28;102717;-66
2021/06/24 08:46:03;;;;;;;4.72;3.72;;;;;;;22.47;73.38;100999.69;4890176;28;102589;-67
2021/06/24 08:48:34;;;;;;;4.50;3.60;;;;;;;22.46;73.34;101001.63;4885715;28;103904;-66
2021/06/24 08:51:01;;;;;;;5.10;4.15;;;;;;;22.46;73.11;100996.06;4891487;28;102592;-66
2021/06/24 08:53:30;;;;;;;4.50;3.90;;;;;;;22.46;73.23;100992.50;4893022;28;102124;-66
2021/06/24 08:55:57;;;;;;;5.10;3.88;;;;;;;22.47;73.06;100991.34;4891759;28;102170;-66
2021/06/24 08:58:24;;;;;;;7.32;4.25;;;;;;;22.44;73.32;100995.63;4891411;28;103137;-67
2021/06/24 09:00:53;;;;;;;4.55;4.15;;;;;;;22.45;73.10;100993.66;4892596;28;102837;-65
2021/06/24 09:03:22;;;;;;;5.07;4.07;;;;;;;22.42;73.19;100986.81;4891540;28;102201;-66
2021/06/24 09:05:55;;;;;;;6.38;4.82;;;;;;;22.42;73.37;100984.06;4892453;28;102655;-66
2021/06/24 09:08:40;;;;;;;4.15;3.75;;;;;;;22.43;73.27;100987.63;4891342;28;103333;-67
2021/06/24 09:11:07;;;;;;;5.43;4.20;;;;;;;22.43;73.10;100987.63;4890683;28;102319;-67
2021/06/24 09:13:34;;;;;;;4.63;4.20;;;;;;;22.43;73.02;100984.84;4890200;28;102423;-66
2021/06/24 09:16:05;;;;;;;5.55;4.20;;;;;;;22.43;73.17;100993.19;4889844;28;102640;-66
2021/06/24 09:18:32;;;;;;;6.97;4.35;;;;;;;22.43;73.14;100993.19;4883662;28;104035;-66
2021/06/24 09:21:03;;;;;;;6.03;4.40;;;;;;;22.41;73.05;100984.41;4883379;28;102530;-66
2021/06/24 09:23:34;;;;;;;6.43;4.15;;;;;;;22.40;73.29;100986.38;4880792;28;102299;-66
2021/06/24 09:26:13;;;;;;;5.10;4.10;;;;;;;22.39;73.20;100975.63;4888106;28;102364;-65
2021/06/24 09:28:42;;;;;;;5.28;4.32;;;;;;;22.39;72.77;100978.38;4890840;28;103904;-66
2021/06/24 09:31:21;;;;;;;5.18;4.45;;;;;;;22.38;73.39;100971.22;4892369;28;102172;-66
2021/06/24 09:33:48;;;;;;;4.80;4.30;;;;;;;22.39;73.07;100970.88;4889180;28;102675;-66
2021/06/24 09:36:34;;;;;;;5.65;4.55;;;;;;;22.39;73.25;100972.84;4890836;28;102333;-66
2021/06/24 09:39:01;;;;;;;5.30;4.50;;;;;;;22.38;73.34;100962.91;4890226;28;103969;-66
2021/06/24 09:41:27;;;;;;;6.93;4.38;;;;;;;22.38;73.19;100963.72;4890127;28;104240;-66
2021/06/24 09:43:54;;;;;;;5.05;4.47;;;;;;;22.38;73.26;100962.91;4886074;28;102520;-66
2021/06/24 09:46:23;;;;;;;5.18;4.60;;;;;;;22.37;73.23;100961.31;4887272;28;102533;-66
2021/06/24 09:48:52;;;;;;;5.95;4.60;;;;;;;22.37;73.36;100955.75;4880986;28;104184;-67
2021/06/24 09:51:21;;;;;;;5.15;4.63;;;;;;;22.38;73.29;100958.16;4889695;28;102569;-66
2021/06/24 09:53:56;;;;;;;4.95;4.55;;;;;;;22.38;73.20;100952.63;4890565;28;103150;-67
2021/06/24 09:56:30;;;;;;;5.18;4.68;;;;;;;22.38;73.25;100951.81;4890279;28;102136;-66
2021/06/24 09:59:02;;;;;;;5.13;4.72;;;;;;;22.38;73.30;100952.63;4888686;28;103670;-66
2021/06/24 10:01:35;;;;;;;6.35;5.07;;;;;;;22.40;73.22;100958.66;4890027;28;102517;-66
2021/06/24 10:04:04;;;;;;;5.13;4.63;;;;;;;22.37;73.18;100951.00;4882509;28;102754;-66
2021/06/24 10:06:31;;;;;;;6.57;5.20;;;;;;;22.36;73.25;100954.13;4888868;28;102531;-66
2021/06/24 10:09:00;;;;;;;6.78;5.13;;;;;;;22.36;73.25;100949.41;4890141;28;104370;-66
2021/06/24 10:11:27;;;;;;;5.43;4.93;;;;;;;22.36;73.30;100954.13;4889343;28;102053;-67
2021/06/24 10:13:54;;;;;;;5.07;4.57;;;;;;;22.36;73.15;100954.13;4892573;28;102078;-66
2021/06/24 10:16:24;;;;;;;5.45;4.95;;;;;;;22.35;73.25;100953.31;4892140;28;102787;-66
2021/06/24 10:18:53;;;;;;;5.95;4.95;;;;;;;22.34;73.34;100940.59;4891248;28;102709;-68
2021/06/24 10:21:22;;;;;;;5.75;5.10;;;;;;;22.33;73.29;100938.19;4903590;28;102497;-67
2021/06/24 10:23:54;;;;;;;7.45;5.22;;;;;;;22.34;73.43;100942.56;4904340;28;102089;-66
2021/06/24 10:26:25;;;;;;;6.40;5.47;;;;;;;22.34;73.40;100939.81;4899742;28;102420;-65
2021/06/24 10:29:10;;;;;;;5.55;5.05;;;;;;;22.33;73.26;100947.31;4893283;28;103015;-66
2021/06/24 10:31:38;;;;;;;5.95;5.35;;;;;;;22.33;73.41;100938.19;4890522;28;102751;-66
2021/06/24 10:34:05;;;;;;;6.00;5.40;;;;;;;22.31;73.31;100947.66;4894307;28;102679;-67
2021/06/24 10:36:32;;;;;;;5.80;5.28;;;;;;;22.33;73.47;100940.97;4891396;28;103867;-66
2021/06/24 10:38:59;;;;;;;6.53;5.93;;;;;;;22.32;73.29;100948.44;4890125;28;103924;-66
2021/06/24 10:41:27;;;;;;;6.85;5.63;;;;;;;22.33;73.31;100939.00;4891593;28;102495;-65
2021/06/24 10:43:55;;;;;;;5.70;5.20;;;;;;;22.33;73.26;100940.97;4891178;28;102130;-66
2021/06/24 10:46:25;;;;;;;6.13;5.47;;;;;;;22.31;73.25;100930.22;4891298;28;102202;-66
2021/06/24 10:48:52;;;;;;;5.97;5.38;;;;;;;22.30;73.44;100932.19;4887850;28;103871;-66
2021/06/24 10:51:31;;;;;;;6.15;5.55;;;;;;;22.31;73.47;100930.22;4887953;28;102204;-67
2021/06/24 10:53:57;;;;;;;7.05;5.43;;;;;;;22.31;73.50;100942.09;4879051;28;102351;-65
2021/06/24 10:56:31;;;;;;;6.20;5.60;;;;;;;22.33;73.32;100940.97;4891722;28;102515;-67
2021/06/24 10:58:59;;;;;;;5.93;5.43;;;;;;;22.33;73.04;100932.66;4886493;28;102647;-67
2021/06/24 11:01:43;;;;;;;6.22;5.72;;;;;;;22.33;73.17;100938.19;4883421;28;102501;-66
2021/06/24 11:04:28;;;;;;;6.47;5.88;;;;;;;22.34;73.25;100934.25;4888429;28;102475;-67
2021/06/24 11:06:55;;;;;;;7.93;6.03;;;;;;;22.34;73.31;100937.84;4889944;28;102483;-67
2021/06/24 11:09:22;;;;;;;7.85;6.10;;;;;;;22.34;73.40;100946.16;4883853;28;103975;-66
2021/06/24 11:11:50;;;;;;;6.85;5.32;;;;;;;22.35;73.34;100935.88;4889592;28;102597;-66
2021/06/24 11:14:55;;;;;;;7.25;6.32;;;;;;;22.34;73.22;100934.25;4888873;28;102449;-66
2021/06/24 11:17:45;;;;;;;6.55;6.00;;;;;;;22.33;73.40;100930.69;4880662;28;102721;-66
2021/06/24 11:20:18;;;;;;;6.80;6.18;;;;;;;22.34;73.23;100925.94;4889360;28;102770;-66
2021/06/24 11:22:49;;;;;;;6.43;5.93;;;;;;;22.32;73.14;100926.28;4890176;28;102476;-66